sensor_id;sensor_type;location;lat;lon;timestamp;P1;durP1;ratioP1;P2;durP2;ratioP2
65037;SDS011;51605;47.040;15.294;2023-08-20T00:00:21;1.47;;;1.30;;
65037;SDS011;51605;47.040;15.294;2023-08-20T00:02:47;1.40;;;1.20;;
65037;SDS011;51605;47.040;15.294;2023-08-20T00:05:19;1.75;;;1.20;;
65037;SDS011;51605;47.040;15.294;2023-08-20T00:07:45;1.30;;;1.20;;
65037;SDS011;51605;47.040;15.294;2023-08-20T00:10:11;1.50;;;1.23;;
65037;SDS011;51605;47.040;15.294;2023-08-20T00:12:36;1.65;;;1.42;;
65037;SDS011;51605;47.040;15.294;2023-08-20T00:15:03;1.60;;;1.50;;
65037;SDS011;51605;47.040;15.294;2023-08-20T00:17:33;1.80;;;1.33;;
65037;SDS011;51605;47.040;15.294;2023-08-20T00:20:06;1.38;;;1.20;;
65037;SDS011;51605;47.040;15.294;2023-08-20T00:22:42;1.88;;;1.40;;
65037;SDS011;51605;47.040;15.294;2023-08-20T00:25:10;1.30;;;1.20;;
65037;SDS011;51605;47.040;15.294;2023-08-20T00:27:40;1.55;;;1.30;;
65037;SDS011;51605;47.040;15.294;2023-08-20T00:30:06;1.30;;;1.20;;
65037;SDS011;51605;47.040;15.294;2023-08-20T00:32:33;1.65;;;1.40;;
65037;SDS011;51605;47.040;15.294;2023-08-20T00:34:59;1.63;;;1.40;;
65037;SDS011;51605;47.040;15.294;2023-08-20T00:37:25;1.35;;;1.10;;
65037;SDS011;51605;47.040;15.294;2023-08-20T00:39:51;1.50;;;1.30;;
65037;SDS011;51605;47.040;15.294;2023-08-20T00:42:17;2.65;;;1.27;;
65037;SDS011;51605;47.040;15.294;2023-08-20T00:44:42;2.33;;;1.33;;
65037;SDS011;51605;47.040;15.294;2023-08-20T00:49:35;1.70;;;1.40;;
65037;SDS011;51605;47.040;15.294;2023-08-20T00:52:01;1.65;;;1.40;;
65037;SDS011;51605;47.040;15.294;2023-08-20T00:54:30;1.33;;;1.23;;
65037;SDS011;51605;47.040;15.294;2023-08-20T00:56:57;1.52;;;1.40;;
65037;SDS011;51605;47.040;15.294;2023-08-20T00:59:25;1.40;;;1.30;;
65037;SDS011;51605;47.040;15.294;2023-08-20T01:01:51;3.35;;;1.30;;
65037;SDS011;51605;47.040;15.294;2023-08-20T01:04:18;1.63;;;1.48;;
65037;SDS011;51605;47.040;15.294;2023-08-20T01:06:55;1.15;;;1.05;;
65037;SDS011;51605;47.040;15.294;2023-08-20T01:09:50;1.20;;;1.10;;
65037;SDS011;51605;47.040;15.294;2023-08-20T01:12:26;1.63;;;1.30;;
65037;SDS011;51605;47.040;15.294;2023-08-20T01:14:52;1.33;;;1.23;;
65037;SDS011;51605;47.040;15.294;2023-08-20T01:17:17;1.65;;;1.35;;
65037;SDS011;51605;47.040;15.294;2023-08-20T01:19:43;1.40;;;1.20;;
65037;SDS011;51605;47.040;15.294;2023-08-20T01:22:21;1.40;;;1.30;;
65037;SDS011;51605;47.040;15.294;2023-08-20T01:30:06;1.40;;;1.30;;
65037;SDS011;51605;47.040;15.294;2023-08-20T01:32:34;1.50;;;1.30;;
65037;SDS011;51605;47.040;15.294;2023-08-20T01:35:01;1.42;;;1.30;;
65037;SDS011;51605;47.040;15.294;2023-08-20T01:37:28;2.65;;;1.20;;
65037;SDS011;51605;47.040;15.294;2023-08-20T01:39:53;1.57;;;1.30;;
65037;SDS011;51605;47.040;15.294;2023-08-20T01:42:19;1.63;;;1.40;;
65037;SDS011;51605;47.040;15.294;2023-08-20T01:44:45;1.75;;;1.30;;
65037;SDS011;51605;47.040;15.294;2023-08-20T01:47:10;1.40;;;1.30;;
65037;SDS011;51605;47.040;15.294;2023-08-20T01:49:36;1.23;;;1.13;;
65037;SDS011;51605;47.040;15.294;2023-08-20T01:52:02;1.77;;;1.50;;
65037;SDS011;51605;47.040;15.294;2023-08-20T01:56:54;1.40;;;1.20;;
65037;SDS011;51605;47.040;15.294;2023-08-20T01:59:21;2.53;;;1.30;;
65037;SDS011;51605;47.040;15.294;2023-08-20T02:01:47;1.38;;;1.27;;
65037;SDS011;51605;47.040;15.294;2023-08-20T02:04:12;1.77;;;1.40;;
65037;SDS011;51605;47.040;15.294;2023-08-20T02:06:38;1.30;;;1.20;;
65037;SDS011;51605;47.040;15.294;2023-08-20T02:09:03;1.33;;;1.13;;
65037;SDS011;51605;47.040;15.294;2023-08-20T02:11:29;1.83;;;1.33;;
65037;SDS011;51605;47.040;15.294;2023-08-20T02:13:58;1.30;;;1.20;;
65037;SDS011;51605;47.040;15.294;2023-08-20T02:16:23;1.58;;;1.33;;
65037;SDS011;51605;47.040;15.294;2023-08-20T02:18:49;1.43;;;1.30;;
65037;SDS011;51605;47.040;15.294;2023-08-20T02:21:14;1.90;;;1.40;;
65037;SDS011;51605;47.040;15.294;2023-08-20T02:23:40;1.40;;;1.20;;
65037;SDS011;51605;47.040;15.294;2023-08-20T02:26:06;1.57;;;1.40;;
65037;SDS011;51605;47.040;15.294;2023-08-20T02:28:31;1.33;;;1.15;;
65037;SDS011;51605;47.040;15.294;2023-08-20T02:30:57;1.38;;;1.27;;
65037;SDS011;51605;47.040;15.294;2023-08-20T02:33:24;1.50;;;1.30;;
65037;SDS011;51605;47.040;15.294;2023-08-20T02:35:50;1.20;;;1.10;;
65037;SDS011;51605;47.040;15.294;2023-08-20T02:38:16;1.47;;;1.37;;
65037;SDS011;51605;47.040;15.294;2023-08-20T02:40:41;1.30;;;1.20;;
65037;SDS011;51605;47.040;15.294;2023-08-20T02:43:07;1.45;;;1.30;;
65037;SDS011;51605;47.040;15.294;2023-08-20T02:45:39;1.40;;;1.30;;
65037;SDS011;51605;47.040;15.294;2023-08-20T02:48:08;1.60;;;1.40;;
65037;SDS011;51605;47.040;15.294;2023-08-20T02:50:34;2.75;;;1.40;;
65037;SDS011;51605;47.040;15.294;2023-08-20T02:53:00;1.50;;;1.40;;
65037;SDS011;51605;47.040;15.294;2023-08-20T02:55:25;1.40;;;1.30;;
65037;SDS011;51605;47.040;15.294;2023-08-20T02:57:51;1.30;;;1.20;;
65037;SDS011;51605;47.040;15.294;2023-08-20T03:00:16;1.37;;;1.27;;
65037;SDS011;51605;47.040;15.294;2023-08-20T03:02:42;1.75;;;1.30;;
65037;SDS011;51605;47.040;15.294;2023-08-20T03:05:08;1.38;;;1.27;;
65037;SDS011;51605;47.040;15.294;2023-08-20T03:07:34;1.60;;;1.40;;
65037;SDS011;51605;47.040;15.294;2023-08-20T03:10:00;1.37;;;1.27;;
65037;SDS011;51605;47.040;15.294;2023-08-20T03:12:26;1.33;;;1.23;;
65037;SDS011;51605;47.040;15.294;2023-08-20T03:14:51;1.45;;;1.33;;
65037;SDS011;51605;47.040;15.294;2023-08-20T03:17:17;1.30;;;1.20;;
65037;SDS011;51605;47.040;15.294;2023-08-20T03:19:56;1.60;;;1.50;;
65037;SDS011;51605;47.040;15.294;2023-08-20T03:22:23;1.98;;;1.40;;
65037;SDS011;51605;47.040;15.294;2023-08-20T03:24:49;1.50;;;1.40;;
65037;SDS011;51605;47.040;15.294;2023-08-20T03:27:15;2.40;;;1.50;;
65037;SDS011;51605;47.040;15.294;2023-08-20T03:29:42;1.75;;;1.48;;
65037;SDS011;51605;47.040;15.294;2023-08-20T03:32:07;1.50;;;1.40;;
65037;SDS011;51605;47.040;15.294;2023-08-20T03:34:33;1.52;;;1.20;;
65037;SDS011;51605;47.040;15.294;2023-08-20T03:36:58;2.07;;;1.37;;
65037;SDS011;51605;47.040;15.294;2023-08-20T03:39:24;2.30;;;1.40;;
65037;SDS011;51605;47.040;15.294;2023-08-20T03:41:50;2.03;;;1.60;;
65037;SDS011;51605;47.040;15.294;2023-08-20T03:44:17;1.67;;;1.30;;
65037;SDS011;51605;47.040;15.294;2023-08-20T03:46:42;1.40;;;1.30;;
65037;SDS011;51605;47.040;15.294;2023-08-20T03:49:08;1.60;;;1.48;;
65037;SDS011;51605;47.040;15.294;2023-08-20T03:51:33;1.60;;;1.30;;
65037;SDS011;51605;47.040;15.294;2023-08-20T03:53:59;1.30;;;1.20;;
65037;SDS011;51605;47.040;15.294;2023-08-20T03:56:24;1.53;;;1.37;;
65037;SDS011;51605;47.040;15.294;2023-08-20T03:58:50;1.73;;;1.38;;
65037;SDS011;51605;47.040;15.294;2023-08-20T04:01:17;1.50;;;1.40;;
65037;SDS011;51605;47.040;15.294;2023-08-20T04:03:45;1.30;;;1.20;;
65037;SDS011;51605;47.040;15.294;2023-08-20T04:06:11;1.90;;;1.48;;
65037;SDS011;51605;47.040;15.294;2023-08-20T04:08:36;1.63;;;1.20;;
65037;SDS011;51605;47.040;15.294;2023-08-20T04:11:02;1.40;;;1.30;;
65037;SDS011;51605;47.040;15.294;2023-08-20T04:13:28;1.42;;;1.30;;
65037;SDS011;51605;47.040;15.294;2023-08-20T04:15:54;1.70;;;1.40;;
65037;SDS011;51605;47.040;15.294;2023-08-20T04:18:20;1.43;;;1.30;;
65037;SDS011;51605;47.040;15.294;2023-08-20T04:20:47;1.58;;;1.48;;
65037;SDS011;51605;47.040;15.294;2023-08-20T04:23:15;1.40;;;1.20;;
65037;SDS011;51605;47.040;15.294;2023-08-20T04:25:41;1.98;;;1.58;;
65037;SDS011;51605;47.040;15.294;2023-08-20T04:28:06;1.52;;;1.40;;
65037;SDS011;51605;47.040;15.294;2023-08-20T04:30:34;1.67;;;1.50;;
65037;SDS011;51605;47.040;15.294;2023-08-20T04:33:00;1.45;;;1.35;;
65037;SDS011;51605;47.040;15.294;2023-08-20T04:35:25;1.77;;;1.30;;
65037;SDS011;51605;47.040;15.294;2023-08-20T04:37:51;1.40;;;1.30;;
65037;SDS011;51605;47.040;15.294;2023-08-20T04:40:17;1.30;;;1.20;;
65037;SDS011;51605;47.040;15.294;2023-08-20T04:42:42;1.50;;;1.40;;
65037;SDS011;51605;47.040;15.294;2023-08-20T04:45:08;1.52;;;1.30;;
65037;SDS011;51605;47.040;15.294;2023-08-20T04:47:35;1.33;;;1.23;;
65037;SDS011;51605;47.040;15.294;2023-08-20T04:50:01;1.50;;;1.30;;
65037;SDS011;51605;47.040;15.294;2023-08-20T04:52:26;1.40;;;1.27;;
65037;SDS011;51605;47.040;15.294;2023-08-20T04:54:52;1.30;;;1.20;;
65037;SDS011;51605;47.040;15.294;2023-08-20T04:57:17;1.60;;;1.50;;
65037;SDS011;51605;47.040;15.294;2023-08-20T04:59:43;1.58;;;1.40;;
65037;SDS011;51605;47.040;15.294;2023-08-20T05:02:10;1.40;;;1.30;;
65037;SDS011;51605;47.040;15.294;2023-08-20T05:04:37;1.83;;;1.60;;
65037;SDS011;51605;47.040;15.294;2023-08-20T05:07:03;1.88;;;1.40;;
65037;SDS011;51605;47.040;15.294;2023-08-20T05:09:29;1.83;;;1.33;;
65037;SDS011;51605;47.040;15.294;2023-08-20T05:11:54;1.43;;;1.33;;
65037;SDS011;51605;47.040;15.294;2023-08-20T05:14:20;1.63;;;1.53;;
65037;SDS011;51605;47.040;15.294;2023-08-20T05:16:46;1.50;;;1.40;;
65037;SDS011;51605;47.040;15.294;2023-08-20T05:19:11;1.50;;;1.37;;
65037;SDS011;51605;47.040;15.294;2023-08-20T05:21:37;1.85;;;1.40;;
65037;SDS011;51605;47.040;15.294;2023-08-20T05:24:03;1.77;;;1.60;;
65037;SDS011;51605;47.040;15.294;2023-08-20T05:26:29;2.57;;;1.20;;
65037;SDS011;51605;47.040;15.294;2023-08-20T05:28:55;1.45;;;1.35;;
65037;SDS011;51605;47.040;15.294;2023-08-20T05:31:21;1.70;;;1.50;;
65037;SDS011;51605;47.040;15.294;2023-08-20T05:33:47;1.50;;;1.40;;
65037;SDS011;51605;47.040;15.294;2023-08-20T05:36:13;5.53;;;1.45;;
65037;SDS011;51605;47.040;15.294;2023-08-20T05:41:07;2.50;;;1.40;;
65037;SDS011;51605;47.040;15.294;2023-08-20T05:43:32;1.70;;;1.50;;
65037;SDS011;51605;47.040;15.294;2023-08-20T05:45:58;1.60;;;1.50;;
65037;SDS011;51605;47.040;15.294;2023-08-20T05:48:24;1.67;;;1.57;;
65037;SDS011;51605;47.040;15.294;2023-08-20T05:50:49;1.60;;;1.40;;
65037;SDS011;51605;47.040;15.294;2023-08-20T05:53:15;2.87;;;1.40;;
65037;SDS011;51605;47.040;15.294;2023-08-20T05:55:40;1.53;;;1.40;;
65037;SDS011;51605;47.040;15.294;2023-08-20T05:58:06;1.90;;;1.57;;
65037;SDS011;51605;47.040;15.294;2023-08-20T06:00:32;1.88;;;1.63;;
65037;SDS011;51605;47.040;15.294;2023-08-20T06:02:57;1.40;;;1.20;;
65037;SDS011;51605;47.040;15.294;2023-08-20T06:05:23;1.67;;;1.30;;
65037;SDS011;51605;47.040;15.294;2023-08-20T06:07:49;1.40;;;1.30;;
65037;SDS011;51605;47.040;15.294;2023-08-20T06:10:15;1.38;;;1.23;;
65037;SDS011;51605;47.040;15.294;2023-08-20T06:12:40;1.80;;;1.60;;
65037;SDS011;51605;47.040;15.294;2023-08-20T06:15:07;1.30;;;1.20;;
65037;SDS011;51605;47.040;15.294;2023-08-20T06:19:58;2.22;;;1.60;;
65037;SDS011;51605;47.040;15.294;2023-08-20T06:22:24;1.67;;;1.50;;
65037;SDS011;51605;47.040;15.294;2023-08-20T06:24:50;1.60;;;1.40;;
65037;SDS011;51605;47.040;15.294;2023-08-20T06:27:15;2.30;;;1.45;;
65037;SDS011;51605;47.040;15.294;2023-08-20T06:29:41;1.83;;;1.50;;
65037;SDS011;51605;47.040;15.294;2023-08-20T06:32:06;2.33;;;1.53;;
65037;SDS011;51605;47.040;15.294;2023-08-20T06:34:33;8.37;;;2.03;;
65037;SDS011;51605;47.040;15.294;2023-08-20T06:37:00;2.90;;;1.60;;
65037;SDS011;51605;47.040;15.294;2023-08-20T06:39:25;3.10;;;1.55;;
65037;SDS011;51605;47.040;15.294;2023-08-20T06:41:51;2.40;;;1.52;;
65037;SDS011;51605;47.040;15.294;2023-08-20T06:44:16;4.23;;;1.47;;
65037;SDS011;51605;47.040;15.294;2023-08-20T06:46:42;1.80;;;1.55;;
65037;SDS011;51605;47.040;15.294;2023-08-20T06:49:08;2.92;;;1.80;;
65037;SDS011;51605;47.040;15.294;2023-08-20T06:51:33;4.18;;;1.70;;
65037;SDS011;51605;47.040;15.294;2023-08-20T06:53:59;1.90;;;1.67;;
65037;SDS011;51605;47.040;15.294;2023-08-20T06:56:24;3.42;;;1.60;;
65037;SDS011;51605;47.040;15.294;2023-08-20T06:58:50;2.80;;;1.70;;
65037;SDS011;51605;47.040;15.294;2023-08-20T07:01:16;4.60;;;1.80;;
65037;SDS011;51605;47.040;15.294;2023-08-20T07:03:42;2.58;;;1.60;;
65037;SDS011;51605;47.040;15.294;2023-08-20T07:06:09;2.75;;;1.50;;
65037;SDS011;51605;47.040;15.294;2023-08-20T07:11:03;2.00;;;1.60;;
65037;SDS011;51605;47.040;15.294;2023-08-20T07:13:29;1.90;;;1.60;;
65037;SDS011;51605;47.040;15.294;2023-08-20T07:15:54;2.42;;;1.50;;
65037;SDS011;51605;47.040;15.294;2023-08-20T07:18:20;2.17;;;1.57;;
65037;SDS011;51605;47.040;15.294;2023-08-20T07:20:46;4.10;;;1.80;;
65037;SDS011;51605;47.040;15.294;2023-08-20T07:23:11;1.80;;;1.50;;
65037;SDS011;51605;47.040;15.294;2023-08-20T07:25:38;3.30;;;1.60;;
65037;SDS011;51605;47.040;15.294;2023-08-20T07:28:04;6.63;;;2.13;;
65037;SDS011;51605;47.040;15.294;2023-08-20T07:30:30;1.90;;;1.60;;
65037;SDS011;51605;47.040;15.294;2023-08-20T07:32:56;2.00;;;1.53;;
65037;SDS011;51605;47.040;15.294;2023-08-20T07:35:22;2.63;;;1.70;;
65037;SDS011;51605;47.040;15.294;2023-08-20T07:37:48;2.10;;;1.67;;
65037;SDS011;51605;47.040;15.294;2023-08-20T07:40:14;3.30;;;1.70;;
65037;SDS011;51605;47.040;15.294;2023-08-20T07:42:40;2.33;;;1.65;;
65037;SDS011;51605;47.040;15.294;2023-08-20T07:45:05;3.33;;;1.90;;
65037;SDS011;51605;47.040;15.294;2023-08-20T07:47:32;2.83;;;1.90;;
65037;SDS011;51605;47.040;15.294;2023-08-20T07:49:58;3.03;;;1.80;;
65037;SDS011;51605;47.040;15.294;2023-08-20T07:52:24;3.60;;;1.90;;
65037;SDS011;51605;47.040;15.294;2023-08-20T07:54:49;3.27;;;2.30;;
65037;SDS011;51605;47.040;15.294;2023-08-20T07:57:15;3.43;;;2.20;;
65037;SDS011;51605;47.040;15.294;2023-08-20T07:59:41;3.50;;;1.90;;
65037;SDS011;51605;47.040;15.294;2023-08-20T08:02:06;2.92;;;1.90;;
65037;SDS011;51605;47.040;15.294;2023-08-20T08:04:33;3.55;;;1.80;;
65037;SDS011;51605;47.040;15.294;2023-08-20T08:09:28;2.70;;;2.10;;
65037;SDS011;51605;47.040;15.294;2023-08-20T08:11:56;2.30;;;1.95;;
65037;SDS011;51605;47.040;15.294;2023-08-20T08:14:23;4.07;;;2.08;;
65037;SDS011;51605;47.040;15.294;2023-08-20T08:16:49;4.05;;;2.00;;
65037;SDS011;51605;47.040;15.294;2023-08-20T08:19:15;3.03;;;2.13;;
65037;SDS011;51605;47.040;15.294;2023-08-20T08:21:41;4.10;;;1.88;;
65037;SDS011;51605;47.040;15.294;2023-08-20T08:24:08;2.28;;;1.70;;
65037;SDS011;51605;47.040;15.294;2023-08-20T08:26:34;3.22;;;2.28;;
65037;SDS011;51605;47.040;15.294;2023-08-20T08:29:03;2.55;;;1.88;;
65037;SDS011;51605;47.040;15.294;2023-08-20T08:31:30;2.70;;;1.90;;
65037;SDS011;51605;47.040;15.294;2023-08-20T08:33:55;2.03;;;1.65;;
65037;SDS011;51605;47.040;15.294;2023-08-20T08:36:21;2.03;;;1.70;;
65037;SDS011;51605;47.040;15.294;2023-08-20T08:38:49;3.47;;;1.85;;
65037;SDS011;51605;47.040;15.294;2023-08-20T08:41:16;3.47;;;1.90;;
65037;SDS011;51605;47.040;15.294;2023-08-20T08:43:42;3.10;;;2.33;;
65037;SDS011;51605;47.040;15.294;2023-08-20T08:46:09;3.43;;;2.43;;
65037;SDS011;51605;47.040;15.294;2023-08-20T08:48:42;2.92;;;1.90;;
65037;SDS011;51605;47.040;15.294;2023-08-20T08:51:09;2.22;;;1.80;;
65037;SDS011;51605;47.040;15.294;2023-08-20T08:53:35;2.42;;;1.90;;
65037;SDS011;51605;47.040;15.294;2023-08-20T08:56:01;2.65;;;1.85;;
65037;SDS011;51605;47.040;15.294;2023-08-20T08:58:28;2.40;;;1.83;;
65037;SDS011;51605;47.040;15.294;2023-08-20T09:00:53;1.90;;;1.70;;
65037;SDS011;51605;47.040;15.294;2023-08-20T09:03:20;3.00;;;1.93;;
65037;SDS011;51605;47.040;15.294;2023-08-20T09:05:49;2.20;;;1.90;;
65037;SDS011;51605;47.040;15.294;2023-08-20T09:08:28;2.83;;;1.98;;
65037;SDS011;51605;47.040;15.294;2023-08-20T09:10:55;1.95;;;1.73;;
65037;SDS011;51605;47.040;15.294;2023-08-20T09:13:23;2.03;;;1.70;;
65037;SDS011;51605;47.040;15.294;2023-08-20T09:15:58;2.15;;;1.75;;
65037;SDS011;51605;47.040;15.294;2023-08-20T09:18:23;2.05;;;1.80;;
65037;SDS011;51605;47.040;15.294;2023-08-20T09:20:49;2.22;;;1.75;;
65037;SDS011;51605;47.040;15.294;2023-08-20T09:23:15;5.57;;;2.08;;
65037;SDS011;51605;47.040;15.294;2023-08-20T09:25:41;2.30;;;1.80;;
65037;SDS011;51605;47.040;15.294;2023-08-20T09:28:07;2.63;;;1.77;;
65037;SDS011;51605;47.040;15.294;2023-08-20T09:30:34;2.08;;;1.67;;
65037;SDS011;51605;47.040;15.294;2023-08-20T09:33:07;2.03;;;1.77;;
65037;SDS011;51605;47.040;15.294;2023-08-20T09:35:35;2.13;;;1.50;;
65037;SDS011;51605;47.040;15.294;2023-08-20T09:38:02;2.35;;;1.70;;
65037;SDS011;51605;47.040;15.294;2023-08-20T09:40:28;2.50;;;1.73;;
65037;SDS011;51605;47.040;15.294;2023-08-20T09:42:55;2.35;;;1.80;;
65037;SDS011;51605;47.040;15.294;2023-08-20T09:45:22;1.92;;;1.70;;
65037;SDS011;51605;47.040;15.294;2023-08-20T09:47:52;2.70;;;1.80;;
65037;SDS011;51605;47.040;15.294;2023-08-20T09:50:21;2.80;;;1.83;;
65037;SDS011;51605;47.040;15.294;2023-08-20T09:52:53;2.22;;;1.88;;
65037;SDS011;51605;47.040;15.294;2023-08-20T09:55:29;2.10;;;1.70;;
65037;SDS011;51605;47.040;15.294;2023-08-20T09:58:01;2.58;;;1.60;;
65037;SDS011;51605;47.040;15.294;2023-08-20T10:02:53;1.98;;;1.67;;
65037;SDS011;51605;47.040;15.294;2023-08-20T10:05:20;1.70;;;1.50;;
65037;SDS011;51605;47.040;15.294;2023-08-20T10:07:47;2.83;;;1.70;;
65037;SDS011;51605;47.040;15.294;2023-08-20T10:10:14;1.80;;;1.60;;
65037;SDS011;51605;47.040;15.294;2023-08-20T10:12:41;2.63;;;1.90;;
65037;SDS011;51605;47.040;15.294;2023-08-20T10:15:10;3.22;;;1.83;;
65037;SDS011;51605;47.040;15.294;2023-08-20T10:17:37;2.10;;;1.75;;
65037;SDS011;51605;47.040;15.294;2023-08-20T10:20:04;2.80;;;1.88;;
65037;SDS011;51605;47.040;15.294;2023-08-20T10:22:35;2.22;;;1.83;;
65037;SDS011;51605;47.040;15.294;2023-08-20T10:25:09;2.60;;;1.77;;
65037;SDS011;51605;47.040;15.294;2023-08-20T10:27:37;1.77;;;1.58;;
65037;SDS011;51605;47.040;15.294;2023-08-20T10:30:11;2.50;;;1.90;;
65037;SDS011;51605;47.040;15.294;2023-08-20T10:35:17;3.85;;;1.80;;
65037;SDS011;51605;47.040;15.294;2023-08-20T10:38:03;2.30;;;1.90;;
65037;SDS011;51605;47.040;15.294;2023-08-20T10:40:49;2.60;;;1.80;;
65037;SDS011;51605;47.040;15.294;2023-08-20T10:46:05;2.10;;;1.73;;
65037;SDS011;51605;47.040;15.294;2023-08-20T10:48:41;2.38;;;1.67;;
65037;SDS011;51605;47.040;15.294;2023-08-20T10:51:11;1.90;;;1.60;;
65037;SDS011;51605;47.040;15.294;2023-08-20T10:53:39;2.13;;;1.85;;
65037;SDS011;51605;47.040;15.294;2023-08-20T10:56:07;2.53;;;1.70;;
65037;SDS011;51605;47.040;15.294;2023-08-20T10:58:44;2.47;;;1.67;;
65037;SDS011;51605;47.040;15.294;2023-08-20T11:01:20;2.35;;;1.70;;
65037;SDS011;51605;47.040;15.294;2023-08-20T11:03:48;2.10;;;1.80;;
65037;SDS011;51605;47.040;15.294;2023-08-20T11:06:15;2.05;;;1.65;;
65037;SDS011;51605;47.040;15.294;2023-08-20T11:08:41;2.25;;;1.70;;
65037;SDS011;51605;47.040;15.294;2023-08-20T11:11:08;2.20;;;1.70;;
65037;SDS011;51605;47.040;15.294;2023-08-20T11:13:34;2.37;;;1.70;;
65037;SDS011;51605;47.040;15.294;2023-08-20T11:16:03;1.90;;;1.70;;
65037;SDS011;51605;47.040;15.294;2023-08-20T11:18:31;1.95;;;1.60;;
65037;SDS011;51605;47.040;15.294;2023-08-20T11:20:58;2.10;;;1.70;;
65037;SDS011;51605;47.040;15.294;2023-08-20T11:23:24;1.93;;;1.60;;
65037;SDS011;51605;47.040;15.294;2023-08-20T11:25:50;1.83;;;1.52;;
65037;SDS011;51605;47.040;15.294;2023-08-20T11:28:16;1.90;;;1.70;;
65037;SDS011;51605;47.040;15.294;2023-08-20T11:30:42;1.60;;;1.50;;
65037;SDS011;51605;47.040;15.294;2023-08-20T11:33:08;2.63;;;1.65;;
65037;SDS011;51605;47.040;15.294;2023-08-20T11:35:34;2.63;;;1.63;;
65037;SDS011;51605;47.040;15.294;2023-08-20T11:38:00;1.70;;;1.60;;
65037;SDS011;51605;47.040;15.294;2023-08-20T11:40:27;2.00;;;1.73;;
65037;SDS011;51605;47.040;15.294;2023-08-20T11:42:53;1.83;;;1.52;;
65037;SDS011;51605;47.040;15.294;2023-08-20T11:45:18;1.90;;;1.70;;
65037;SDS011;51605;47.040;15.294;2023-08-20T11:47:44;3.00;;;1.83;;
65037;SDS011;51605;47.040;15.294;2023-08-20T11:50:10;2.00;;;1.70;;
65037;SDS011;51605;47.040;15.294;2023-08-20T11:52:36;1.75;;;1.58;;
65037;SDS011;51605;47.040;15.294;2023-08-20T11:55:04;2.05;;;1.60;;
65037;SDS011;51605;47.040;15.294;2023-08-20T11:57:31;2.00;;;1.60;;
65037;SDS011;51605;47.040;15.294;2023-08-20T12:00:06;2.00;;;1.70;;
65037;SDS011;51605;47.040;15.294;2023-08-20T12:02:39;2.20;;;1.80;;
65037;SDS011;51605;47.040;15.294;2023-08-20T12:05:06;1.90;;;1.70;;
65037;SDS011;51605;47.040;15.294;2023-08-20T12:07:32;1.90;;;1.50;;
65037;SDS011;51605;47.040;15.294;2023-08-20T12:09:58;2.10;;;1.65;;
65037;SDS011;51605;47.040;15.294;2023-08-20T12:12:23;2.53;;;1.70;;
65037;SDS011;51605;47.040;15.294;2023-08-20T12:14:49;2.08;;;1.80;;
65037;SDS011;51605;47.040;15.294;2023-08-20T12:17:18;1.57;;;1.47;;
65037;SDS011;51605;47.040;15.294;2023-08-20T12:19:44;2.78;;;1.60;;
65037;SDS011;51605;47.040;15.294;2023-08-20T12:22:10;1.95;;;1.65;;
65037;SDS011;51605;47.040;15.294;2023-08-20T12:24:37;2.35;;;1.73;;
65037;SDS011;51605;47.040;15.294;2023-08-20T12:27:03;1.60;;;1.50;;
65037;SDS011;51605;47.040;15.294;2023-08-20T12:29:28;2.10;;;1.60;;
65037;SDS011;51605;47.040;15.294;2023-08-20T12:31:54;2.00;;;1.70;;
65037;SDS011;51605;47.040;15.294;2023-08-20T12:34:20;2.88;;;1.77;;
65037;SDS011;51605;47.040;15.294;2023-08-20T12:36:50;2.15;;;1.70;;
65037;SDS011;51605;47.040;15.294;2023-08-20T12:39:15;2.10;;;1.60;;
65037;SDS011;51605;47.040;15.294;2023-08-20T12:41:41;2.20;;;1.70;;
65037;SDS011;51605;47.040;15.294;2023-08-20T12:44:08;1.83;;;1.50;;
65037;SDS011;51605;47.040;15.294;2023-08-20T12:46:33;2.23;;;1.70;;
65037;SDS011;51605;47.040;15.294;2023-08-20T12:48:59;1.80;;;1.60;;
65037;SDS011;51605;47.040;15.294;2023-08-20T12:51:24;1.50;;;1.40;;
65037;SDS011;51605;47.040;15.294;2023-08-20T12:53:51;1.85;;;1.50;;
65037;SDS011;51605;47.040;15.294;2023-08-20T12:56:17;1.85;;;1.50;;
65037;SDS011;51605;47.040;15.294;2023-08-20T12:58:42;1.73;;;1.57;;
65037;SDS011;51605;47.040;15.294;2023-08-20T13:01:08;1.77;;;1.47;;
65037;SDS011;51605;47.040;15.294;2023-08-20T13:03:34;2.07;;;1.40;;
65037;SDS011;51605;47.040;15.294;2023-08-20T13:06:00;2.00;;;1.80;;
65037;SDS011;51605;47.040;15.294;2023-08-20T13:08:26;1.90;;;1.70;;
65037;SDS011;51605;47.040;15.294;2023-08-20T13:10:53;2.40;;;1.60;;
65037;SDS011;51605;47.040;15.294;2023-08-20T13:13:20;1.70;;;1.42;;
65037;SDS011;51605;47.040;15.294;2023-08-20T13:15:48;1.98;;;1.60;;
65037;SDS011;51605;47.040;15.294;2023-08-20T13:18:15;1.90;;;1.52;;
65037;SDS011;51605;47.040;15.294;2023-08-20T13:20:41;1.67;;;1.43;;
65037;SDS011;51605;47.040;15.294;2023-08-20T13:23:08;1.75;;;1.40;;
65037;SDS011;51605;47.040;15.294;2023-08-20T13:25:34;2.10;;;1.50;;
65037;SDS011;51605;47.040;15.294;2023-08-20T13:28:00;1.65;;;1.42;;
65037;SDS011;51605;47.040;15.294;2023-08-20T13:30:26;2.43;;;1.50;;
65037;SDS011;51605;47.040;15.294;2023-08-20T13:32:51;1.93;;;1.67;;
65037;SDS011;51605;47.040;15.294;2023-08-20T13:35:17;1.70;;;1.50;;
65037;SDS011;51605;47.040;15.294;2023-08-20T13:37:43;1.67;;;1.50;;
65037;SDS011;51605;47.040;15.294;2023-08-20T13:40:09;1.75;;;1.50;;
65037;SDS011;51605;47.040;15.294;2023-08-20T13:42:35;1.42;;;1.30;;
65037;SDS011;51605;47.040;15.294;2023-08-20T13:45:01;1.70;;;1.60;;
65037;SDS011;51605;47.040;15.294;2023-08-20T13:47:26;2.43;;;1.40;;
65037;SDS011;51605;47.040;15.294;2023-08-20T13:49:52;1.63;;;1.53;;
65037;SDS011;51605;47.040;15.294;2023-08-20T13:52:18;1.70;;;1.47;;
65037;SDS011;51605;47.040;15.294;2023-08-20T13:54:43;2.00;;;1.40;;
65037;SDS011;51605;47.040;15.294;2023-08-20T13:57:09;1.60;;;1.40;;
65037;SDS011;51605;47.040;15.294;2023-08-20T13:59:35;1.53;;;1.43;;
65037;SDS011;51605;47.040;15.294;2023-08-20T14:02:01;2.65;;;1.40;;
65037;SDS011;51605;47.040;15.294;2023-08-20T14:04:27;1.60;;;1.50;;
65037;SDS011;51605;47.040;15.294;2023-08-20T14:06:52;1.63;;;1.40;;
65037;SDS011;51605;47.040;15.294;2023-08-20T14:09:18;1.60;;;1.50;;
65037;SDS011;51605;47.040;15.294;2023-08-20T14:11:44;1.90;;;1.40;;
65037;SDS011;51605;47.040;15.294;2023-08-20T14:14:12;2.10;;;1.40;;
65037;SDS011;51605;47.040;15.294;2023-08-20T14:16:38;2.08;;;1.55;;
65037;SDS011;51605;47.040;15.294;2023-08-20T14:19:04;1.40;;;1.30;;
65037;SDS011;51605;47.040;15.294;2023-08-20T14:21:29;1.50;;;1.40;;
65037;SDS011;51605;47.040;15.294;2023-08-20T14:23:55;1.52;;;1.40;;
65037;SDS011;51605;47.040;15.294;2023-08-20T14:26:21;1.63;;;1.53;;
65037;SDS011;51605;47.040;15.294;2023-08-20T14:28:46;1.58;;;1.40;;
65037;SDS011;51605;47.040;15.294;2023-08-20T14:31:12;2.55;;;1.40;;
65037;SDS011;51605;47.040;15.294;2023-08-20T14:33:38;1.77;;;1.40;;
65037;SDS011;51605;47.040;15.294;2023-08-20T14:36:03;1.50;;;1.40;;
65037;SDS011;51605;47.040;15.294;2023-08-20T14:38:29;2.22;;;1.50;;
65037;SDS011;51605;47.040;15.294;2023-08-20T14:40:59;1.92;;;1.38;;
65037;SDS011;51605;47.040;15.294;2023-08-20T14:43:28;2.65;;;1.30;;
65037;SDS011;51605;47.040;15.294;2023-08-20T14:45:54;1.65;;;1.45;;
65037;SDS011;51605;47.040;15.294;2023-08-20T14:48:23;1.95;;;1.45;;
65037;SDS011;51605;47.040;15.294;2023-08-20T14:50:49;1.60;;;1.40;;
65037;SDS011;51605;47.040;15.294;2023-08-20T14:53:16;1.30;;;1.20;;
65037;SDS011;51605;47.040;15.294;2023-08-20T14:55:42;1.40;;;1.30;;
65037;SDS011;51605;47.040;15.294;2023-08-20T14:58:09;1.35;;;1.25;;